Feyz Commander — H3EG — position and weather

sailwx.info

Track history (hours):
 
Tides and Currents Weather Stations Pressure Air Temp Water Temp Dewpoint Dewpoint Depression Visibility Wind Speed Wind Dir Waves Ship Positions

Feyz Commander

Last reported at 2018-May-15 14:19 UTC. Time now 2018-May-23 03:28 UTC.
Position N 39°13' E 009°04'.

Length 93 m; draft 7 m.

Type: Cargo ship. MMSI: 357297000.

Date/timePositionNaut miles runAvg speedWind from/ knotsBaromVisibWave heightAir tempDewpointWater temp
2018-May-15 14:19N 39°13' E 009°04'0 0.0
2018-May-15 13:58N 39°13' E 009°04'0 0.0
2018-May-15 13:28N 39°13' E 009°04'0 0.0
2018-May-15 12:58N 39°13' E 009°04'0 0.0
2018-May-15 12:28N 39°13' E 009°04'0 0.0
2018-May-15 11:58N 39°13' E 009°04'0 0.0
2018-May-15 11:28N 39°13' E 009°04'0 0.0
2018-May-15 10:58N 39°13' E 009°04'0 0.0
2018-May-15 10:28N 39°13' E 009°04'0 0.0
2018-May-15 09:58N 39°13' E 009°04'0 0.0
2018-May-15 09:28N 39°13' E 009°04'0 0.0
2018-May-15 08:58N 39°13' E 009°04'0 0.0
2018-May-15 08:25N 39°13' E 009°04'0 0.0
2018-May-15 07:58N 39°13' E 009°04'0 0.0
2018-May-15 07:28N 39°13' E 009°04'0 0.0
2018-May-15 06:58N 39°13' E 009°04'0 0.0
2018-May-15 06:28N 39°13' E 009°04'0 0.0
2018-May-15 05:58N 39°13' E 009°04'0 0.0
2018-May-15 05:28N 39°13' E 009°04'0 0.0
2018-May-15 04:58N 39°13' E 009°04'0 0.0
2018-May-15 04:28N 39°13' E 009°04'0 0.0
2018-May-15 03:58N 39°13' E 009°04'0 0.0
2018-May-15 03:28N 39°13' E 009°04'0 0.0
2018-May-15 02:58N 39°13' E 009°04'0 0.0
2018-May-15 02:28N 39°13' E 009°04'0 0.0
2018-May-15 01:58N 39°13' E 009°04'0 0.0
2018-May-15 01:28N 39°13' E 009°04'0 0.0
2018-May-15 00:58N 39°13' E 009°04'0 0.0
2018-May-15 00:28N 39°13' E 009°04'0 0.0
2018-May-14 23:58N 39°13' E 009°04'0 0.0
2018-May-14 23:28N 39°13' E 009°04'0 0.0
2018-May-14 22:58N 39°13' E 009°04'0 0.0
2018-May-14 22:28N 39°13' E 009°04'0 0.0
2018-May-14 21:58N 39°13' E 009°04'0 0.0
2018-May-14 21:28N 39°13' E 009°04'0 0.0
2018-May-14 21:01N 39°13' E 009°04'0 0.0
2018-May-14 20:31N 39°13' E 009°04'0 0.0
2018-May-14 20:00N 39°13' E 009°04'0 0.0
2018-May-14 19:30N 39°13' E 009°04'0 0.0
2018-May-14 19:00N 39°13' E 009°04'0 0.0
2018-May-14 18:30N 39°13' E 009°04'0 0.0
2018-May-14 18:00N 39°13' E 009°04'0 0.0
2018-May-14 17:30N 39°13' E 009°04'0 0.0
2018-May-14 17:00N 39°13' E 009°04'0 0.0
2018-May-14 16:30N 39°13' E 009°04'0 0.0
2018-May-14 16:00N 39°13' E 009°04'0 0.0
2018-May-14 15:30N 39°13' E 009°04'0 0.0
2018-May-14 15:00N 39°13' E 009°04'0 0.0
2018-May-14 14:30N 39°13' E 009°04'0 0.0
2018-May-14 13:12N 39°13' E 009°04'0 0.0
2018-May-14 13:00N 39°13' E 009°04'0 0.0
2018-May-14 12:30N 39°13' E 009°04'0 0.0
2018-May-14 11:54N 39°13' E 009°04'0 0.0
2018-May-14 11:30N 39°13' E 009°04'0 0.0
2018-May-14 11:00N 39°13' E 009°04'2 3.8
2018-May-14 10:30N 39°12' E 009°06'4 7.6
2018-May-14 10:00N 39°08' E 009°07'4 8.3
2018-May-14 09:28N 39°06' E 009°12'4 9.0
2018-May-14 08:59N 39°04' E 009°17'4 8.9
2018-May-14 08:30N 39°01' E 009°22'5 8.7
2018-May-14 07:59N 38°59' E 009°27'152 8.1
2018-May-13 13:18N 38°36' E 012°39'3 8.8
2018-May-13 13:00N 38°36' E 012°43'4 8.8
2018-May-13 12:30N 38°35' E 012°48'14 8.9
2018-May-13 10:54N 38°33' E 013°06'4 9.0
2018-May-13 10:30N 38°33' E 013°11'4 9.0
2018-May-13 10:00N 38°32' E 013°16'4 8.8
2018-May-13 09:30N 38°31' E 013°22'4 8.5
2018-May-13 09:00N 38°31' E 013°27'4 8.4
2018-May-13 08:30N 38°30' E 013°33'4 8.2
2018-May-13 08:00N 38°29' E 013°38'4 8.2
2018-May-13 07:30N 38°28' E 013°43'5 8.6
2018-May-13 06:59N 38°28' E 013°49'4 8.9
2018-May-13 06:30N 38°28' E 013°54'30 8.9
2018-May-13 03:11N 38°23' E 014°32'3 9.0
2018-May-13 02:49N 38°23' E 014°36'3 9.0
2018-May-13 02:26N 38°22' E 014°40'4 8.7
2018-May-13 02:00N 38°21' E 014°45'5 8.8
2018-May-13 01:29N 38°21' E 014°51'4 8.9
2018-May-13 01:00N 38°20' E 014°56'5 8.6
2018-May-13 00:28N 38°20' E 015°02'4 8.4
2018-May-13 00:00N 38°20' E 015°07'4 8.5
2018-May-12 23:30N 38°20' E 015°12'4 8.9
2018-May-12 23:00N 38°20' E 015°18'5 9.1
2018-May-12 22:30N 38°20' E 015°24'5 9.1
2018-May-12 22:00N 38°20' E 015°29'5 9.4
2018-May-12 21:31N 38°20' E 015°35'5 9.2
2018-May-12 21:00N 38°18' E 015°41'3 6.2
2018-May-12 20:28N 38°15' E 015°40'3 5.6
2018-May-12 20:00N 38°14' E 015°37'3 7.2
2018-May-12 19:30N 38°10' E 015°37'4 8.0
2018-May-12 18:58N 38°06' E 015°36'4 8.1
2018-May-12 18:31N 38°02' E 015°37'4 8.6
2018-May-12 18:00N 37°58' E 015°38'5 9.1
2018-May-12 17:31N 37°54' E 015°41'5 9.7
2018-May-12 17:00N 37°53' E 015°47'5 9.4
2018-May-12 16:30N 37°52' E 015°53'  
2018-May-09 19:04N 39°55' E 026°07'3 9.0
2018-May-09 18:45N 39°57' E 026°08'3 9.7
2018-May-09 18:25N 40°00' E 026°09'  
Track history (hours):
 
Tides and Currents Weather Stations Pressure Air Temp Water Temp Dewpoint Dewpoint Depression Visibility Wind Speed Wind Dir Waves Ship Positions

Feyz Commander

Last reported at 2018-May-15 14:19 UTC. Time now 2018-May-23 03:28 UTC.
Position N 39°13' E 009°04'.

Length 93 m; draft 7 m.

Type: Cargo ship. MMSI: 357297000.

Date/timePositionNaut miles runAvg speedWind from/ knotsBaromVisibWave heightAir tempDewpointWater temp
2018-May-15 14:19N 39°13' E 009°04'0 0.0
2018-May-15 13:58N 39°13' E 009°04'0 0.0
2018-May-15 13:28N 39°13' E 009°04'0 0.0
2018-May-15 12:58N 39°13' E 009°04'0 0.0
2018-May-15 12:28N 39°13' E 009°04'0 0.0
2018-May-15 11:58N 39°13' E 009°04'0 0.0
2018-May-15 11:28N 39°13' E 009°04'0 0.0
2018-May-15 10:58N 39°13' E 009°04'0 0.0
2018-May-15 10:28N 39°13' E 009°04'0 0.0
2018-May-15 09:58N 39°13' E 009°04'0 0.0
2018-May-15 09:28N 39°13' E 009°04'0 0.0
2018-May-15 08:58N 39°13' E 009°04'0 0.0
2018-May-15 08:25N 39°13' E 009°04'0 0.0
2018-May-15 07:58N 39°13' E 009°04'0 0.0
2018-May-15 07:28N 39°13' E 009°04'0 0.0
2018-May-15 06:58N 39°13' E 009°04'0 0.0
2018-May-15 06:28N 39°13' E 009°04'0 0.0
2018-May-15 05:58N 39°13' E 009°04'0 0.0
2018-May-15 05:28N 39°13' E 009°04'0 0.0
2018-May-15 04:58N 39°13' E 009°04'0 0.0
2018-May-15 04:28N 39°13' E 009°04'0 0.0
2018-May-15 03:58N 39°13' E 009°04'0 0.0
2018-May-15 03:28N 39°13' E 009°04'0 0.0
2018-May-15 02:58N 39°13' E 009°04'0 0.0
2018-May-15 02:28N 39°13' E 009°04'0 0.0
2018-May-15 01:58N 39°13' E 009°04'0 0.0
2018-May-15 01:28N 39°13' E 009°04'0 0.0
2018-May-15 00:58N 39°13' E 009°04'0 0.0
2018-May-15 00:28N 39°13' E 009°04'0 0.0
2018-May-14 23:58N 39°13' E 009°04'0 0.0
2018-May-14 23:28N 39°13' E 009°04'0 0.0
2018-May-14 22:58N 39°13' E 009°04'0 0.0
2018-May-14 22:28N 39°13' E 009°04'0 0.0
2018-May-14 21:58N 39°13' E 009°04'0 0.0
2018-May-14 21:28N 39°13' E 009°04'0 0.0
2018-May-14 21:01N 39°13' E 009°04'0 0.0
2018-May-14 20:31N 39°13' E 009°04'0 0.0
2018-May-14 20:00N 39°13' E 009°04'0 0.0
2018-May-14 19:30N 39°13' E 009°04'0 0.0
2018-May-14 19:00N 39°13' E 009°04'0 0.0
2018-May-14 18:30N 39°13' E 009°04'0 0.0
2018-May-14 18:00N 39°13' E 009°04'0 0.0
2018-May-14 17:30N 39°13' E 009°04'0 0.0
2018-May-14 17:00N 39°13' E 009°04'0 0.0
2018-May-14 16:30N 39°13' E 009°04'0 0.0
2018-May-14 16:00N 39°13' E 009°04'0 0.0
2018-May-14 15:30N 39°13' E 009°04'0 0.0
2018-May-14 15:00N 39°13' E 009°04'0 0.0
2018-May-14 14:30N 39°13' E 009°04'0 0.0
2018-May-14 13:12N 39°13' E 009°04'0 0.0
2018-May-14 13:00N 39°13' E 009°04'0 0.0
2018-May-14 12:30N 39°13' E 009°04'0 0.0
2018-May-14 11:54N 39°13' E 009°04'0 0.0
2018-May-14 11:30N 39°13' E 009°04'0 0.0
2018-May-14 11:00N 39°13' E 009°04'2 3.8
2018-May-14 10:30N 39°12' E 009°06'4 7.6
2018-May-14 10:00N 39°08' E 009°07'4 8.3
2018-May-14 09:28N 39°06' E 009°12'4 9.0
2018-May-14 08:59N 39°04' E 009°17'4 8.9
2018-May-14 08:30N 39°01' E 009°22'5 8.7
2018-May-14 07:59N 38°59' E 009°27'152 8.1
2018-May-13 13:18N 38°36' E 012°39'3 8.8
2018-May-13 13:00N 38°36' E 012°43'4 8.8
2018-May-13 12:30N 38°35' E 012°48'14 8.9
2018-May-13 10:54N 38°33' E 013°06'4 9.0
2018-May-13 10:30N 38°33' E 013°11'4 9.0
2018-May-13 10:00N 38°32' E 013°16'4 8.8
2018-May-13 09:30N 38°31' E 013°22'4 8.5
2018-May-13 09:00N 38°31' E 013°27'4 8.4
2018-May-13 08:30N 38°30' E 013°33'4 8.2
2018-May-13 08:00N 38°29' E 013°38'4 8.2
2018-May-13 07:30N 38°28' E 013°43'5 8.6
2018-May-13 06:59N 38°28' E 013°49'4 8.9
2018-May-13 06:30N 38°28' E 013°54'30 8.9
2018-May-13 03:11N 38°23' E 014°32'3 9.0
2018-May-13 02:49N 38°23' E 014°36'3 9.0
2018-May-13 02:26N 38°22' E 014°40'4 8.7
2018-May-13 02:00N 38°21' E 014°45'5 8.8
2018-May-13 01:29N 38°21' E 014°51'4 8.9
2018-May-13 01:00N 38°20' E 014°56'5 8.6
2018-May-13 00:28N 38°20' E 015°02'4 8.4
2018-May-13 00:00N 38°20' E 015°07'4 8.5
2018-May-12 23:30N 38°20' E 015°12'4 8.9
2018-May-12 23:00N 38°20' E 015°18'5 9.1
2018-May-12 22:30N 38°20' E 015°24'5 9.1
2018-May-12 22:00N 38°20' E 015°29'5 9.4
2018-May-12 21:31N 38°20' E 015°35'5 9.2
2018-May-12 21:00N 38°18' E 015°41'3 6.2
2018-May-12 20:28N 38°15' E 015°40'3 5.6
2018-May-12 20:00N 38°14' E 015°37'3 7.2
2018-May-12 19:30N 38°10' E 015°37'4 8.0
2018-May-12 18:58N 38°06' E 015°36'4 8.1
2018-May-12 18:31N 38°02' E 015°37'4 8.6
2018-May-12 18:00N 37°58' E 015°38'5 9.1
2018-May-12 17:31N 37°54' E 015°41'5 9.7
2018-May-12 17:00N 37°53' E 015°47'5 9.4
2018-May-12 16:30N 37°52' E 015°53'  
2018-May-09 19:04N 39°55' E 026°07'3 9.0
2018-May-09 18:45N 39°57' E 026°08'3 9.7
2018-May-09 18:25N 40°00' E 026°09'  

Dump ship's entire track history